Surprise, AZ

10:22 AM MST on March 31, 2015 (GMT -0700)
Phoenix Goodyear | | Change Station
CLOSE
Current Station
Airport
Location: Goodyear,
Elevation: 968 ft
Nearby Weather Stations

Elev 968 ft 33.42 °N, 112.37 °W | Updated 35 minutes ago

Clear
Clear
79 °F
Feels Like 79 °F
N
5
Wind Variable Wind from Variable

Today
High -- | Low -- °F
--% Chance of Precip.
Yesterday
High -- | Low -- °F
Precip. -- in
6:18 AM 6:49 PM
Waxing Gibbous, 88% visible
Pressure 29.99 in
Visibility 10.0 miles
Clouds Clear
Dew Point 37 °F
Humidity 23%
Rainfall 0.00 in
Snow Depth Not available.
UV 5 out of 12
Pollen 11.10 out of 12
Air Quality Not available.
Flu Activity Not available.
METAR KGYR 311647Z VRB04KT 10SM SKC 26/03 A2999

More Conditions Fewer Conditions

Pressure 29.99 in
Visibility 10.0 miles
Clouds Clear
Dew Point 37 °F
Humidity 23%
Rainfall 0.00 in
Snow Depth Not available.
UV 5 out of 12
Pollen 11.10 out of 12
Air Quality Not available.
Flu Activity Not available.
METAR KGYR 311647Z VRB04KT 10SM SKC 26/03 A2999

More Conditions Fewer Conditions

10-Day Weather Forecast

Almanac

Astronomy

Mar. 31, 2015 Rise Set
Actual Time
Civil Twilight
Nautical Twilight
Astronomical Twilight
Moon
Length of Visible Light
Length of Day
Tomorrow will be .
, % of the Moon is Illuminated

Today's Extremes

State Highs State Lows

Community

WunderPhotos

Upload Photos

1,809,787 photos uploaded!

WunderBlogs® & News

Nearby

Air Quality

  Air Quality AQ Index Pollutant
Not available.

Snow Depth

Station Depth Elevation

Earthquake Activity

City Distance Mag. Time & Date
Minimum magnitude displayed is 2.5.

Coastal Water Temperatures

Place Temperature

Stations

Nearby Weather Stations

Station Location Temp. Windchill Dew Point Humidity Wind Precip. Elev Updated Type